Skip to main content

NOAA/GLERL Met Station at Chicago, IL

Previous 3 Hours (2 minute increments)
See also Previous 5 Days (top of hour)
Jump down to Data
Switch to [English][Metric]
Zoom: Click and drag, Pan: shift-click and drag, Unzoom: double-click, Unzoom All




See also 1-day windrose plot


NOAA/GLERL Met Station at Chicago, IL

Previous 3 Hours (2 minute increments)
See also Previous 5 Days (top of hour only)
Jump up to Graphs
Switch to [English][Metric]
                  Wind  Wind  Wind   Air   Dew   Rel
                   Spd   Gst   Dir  Temp    Pt   Hum
YYYY-MM-DD   CDT   kts   kts   deg     F     F     %
2020-09-23 04:38  11.5  12.4   261  66.0  59.8  80.1
2020-09-23 04:36  11.5  12.2   260  66.2  59.9  79.8
2020-09-23 04:34  11.7  12.4   257  66.2  59.9  79.9
2020-09-23 04:32  10.7  11.7   264  66.2  60.1  80.5
2020-09-23 04:30  11.1  11.9   262  66.4  60.1  79.9
2020-09-23 04:28  10.5  11.9   264  66.2  60.1  80.5
2020-09-23 04:26  10.9  12.1   265  66.2  60.0  80.2
2020-09-23 04:24  10.5  11.5   260  66.2  59.9  80.0
2020-09-23 04:22  10.9  11.7   260  66.0  59.7  79.8
2020-09-23 04:20  10.5  11.9   260  66.0  60.0  80.6
2020-09-23 04:18  10.3  11.3   258  66.0  60.0  80.6
2020-09-23 04:16  10.1  10.9   259  65.8  59.8  80.6
2020-09-23 04:14   9.5  10.5   257  65.8  60.0  81.1
2020-09-23 04:12   9.3  10.3   256  65.8  60.0  81.3
2020-09-23 04:10   9.9  10.7   257  65.8  59.8  80.6
2020-09-23 04:08   8.9   9.7   259  65.8  60.3  82.2
2020-09-23 04:06   9.7  10.3   260  65.8  59.8  80.7
2020-09-23 04:04   9.5  10.1   260  65.8  60.2  81.7
2020-09-23 04:02  10.3  11.9   263  65.8  60.0  81.3
2020-09-23 04:00  11.3  12.1   265  65.8  59.6  80.1
2020-09-23 03:58  10.5  11.3   267  65.8  59.9  81.0
2020-09-23 03:56  10.7  11.7   267  65.8  60.1  81.4
2020-09-23 03:54  11.1  11.7   268  65.8  59.9  80.8
2020-09-23 03:52  11.9  12.4   271  66.0  59.6  79.6
2020-09-23 03:50  11.3  12.1   270  66.0  59.6  79.4
2020-09-23 03:48  10.9  12.1   270  66.0  59.9  80.5
2020-09-23 03:46  11.5  12.6   268  66.2  59.7  79.2
2020-09-23 03:44  10.7  11.5   272  66.4  59.8  79.0
2020-09-23 03:42  10.7  11.7   269  66.4  59.8  79.1
2020-09-23 03:40  10.7  12.2   269  66.4  59.7  78.8
2020-09-23 03:38  10.3  11.5   267  66.6  59.9  78.8
2020-09-23 03:36  10.5  11.3   266  66.6  59.8  78.7
2020-09-23 03:34  10.7  11.7   264  66.7  59.8  78.0
2020-09-23 03:32  11.1  11.9   264  66.7  59.6  77.6
2020-09-23 03:30  11.9  12.8   262  66.7  59.6  77.6
2020-09-23 03:28  11.7  13.0   263  66.9  59.6  76.9
2020-09-23 03:26  11.9  12.6   262  66.9  59.8  77.6
2020-09-23 03:24  12.2  14.0   260  66.9  59.6  77.1
2020-09-23 03:22  11.7  13.4   262  66.9  59.6  76.9
2020-09-23 03:20  11.7  12.8   260  66.9  59.7  77.2
2020-09-23 03:18  10.5  11.5   264  66.9  59.9  77.8
2020-09-23 03:16  10.3  11.3   264  66.9  60.2  78.7
2020-09-23 03:14   9.9  11.1   265  66.7  60.5  80.1
2020-09-23 03:12  10.3  11.5   266  66.9  60.1  78.4
2020-09-23 03:10  10.9  12.8   269  66.9  59.8  77.5
2020-09-23 03:08  10.1  11.3   269  66.9  59.9  77.8
2020-09-23 03:06  10.1  11.5   268  66.9  59.9  78.0
2020-09-23 03:04   9.5  10.1   272  67.1  59.8  77.2
2020-09-23 03:02  10.1  11.3   271  67.3  59.8  76.5
2020-09-23 03:00  10.1  11.5   268  67.3  59.7  76.2
2020-09-23 02:58  10.5  11.3   267  67.5  59.8  76.2
2020-09-23 02:56  11.3  13.0   267  67.5  59.5  75.2
2020-09-23 02:54  12.1  13.2   265  67.6  59.4  74.5
2020-09-23 02:52  11.7  13.2   266  67.6  59.7  75.3
2020-09-23 02:50  11.7  12.4   262  67.6  59.9  76.0
2020-09-23 02:48  12.6  13.6   261  67.8  59.4  74.1
2020-09-23 02:46  13.0  14.0   264  67.8  59.3  73.7
2020-09-23 02:44  12.8  13.6   263  67.8  59.4  74.0
2020-09-23 02:42  12.6  13.6   261  67.8  59.4  74.2
2020-09-23 02:40  13.4  15.0   259  67.8  59.3  73.9
2020-09-23 02:38  13.4  14.4   258  67.6  59.6  75.1
2020-09-23 02:36  12.8  14.0   256  67.8  59.4  74.2
2020-09-23 02:34  14.2  15.7   254  67.8  59.3  73.9
2020-09-23 02:32  12.6  14.0   258  67.6  59.9  75.8
2020-09-23 02:30  13.8  15.2   256  67.6  59.4  74.6
2020-09-23 02:28  13.4  14.8   260  67.8  59.6  74.7
2020-09-23 02:26  12.8  14.6   264  67.8  59.8  75.2
2020-09-23 02:24  14.6  16.1   257  67.8  59.3  73.7
2020-09-23 02:22  13.4  15.0   261  67.8  59.7  74.8
2020-09-23 02:20  13.4  14.4   261  68.0  59.7  74.5
2020-09-23 02:18  14.0  15.6   265  68.2  59.2  72.7
2020-09-23 02:16  14.0  15.2   266  68.2  59.3  73.0
2020-09-23 02:14  15.2  16.7   265  68.4  59.4  72.7
2020-09-23 02:12  14.8  15.9   261  68.4  59.4  72.7
2020-09-23 02:10  14.4  15.9   257  68.5  59.2  71.7
2020-09-23 02:08  15.4  16.3   257  68.7  59.3  71.6
2020-09-23 02:06  15.0  16.3   257  68.7  59.6  72.3
2020-09-23 02:04  15.0  16.7   255  68.7  59.4  71.7
2020-09-23 02:02  14.6  15.9   257  68.7  59.4  71.9
2020-09-23 02:00  15.2  17.1   255  68.9  59.4  71.3
2020-09-23 01:58  13.8  15.2   256  68.9  59.5  71.5
2020-09-23 01:56  13.6  15.2   258  68.9  59.7  72.2
2020-09-23 01:54  12.8  14.4   260  68.7  59.7  72.7
2020-09-23 01:52  12.2  14.2   258  68.7  59.9  73.1
2020-09-23 01:50  12.1  13.6   258  68.9  59.7  72.0
2020-09-23 01:48  12.6  13.8   256  69.1  59.5  71.1
2020-09-23 01:46  12.2  13.2   258  69.1  59.4  71.0
2020-09-23 01:44  12.4  13.6   257  69.1  59.3  70.7
2020-09-23 01:42  12.1  13.2   259  69.1  59.4  70.8
2020-09-23 01:40  12.1  12.4   259  69.1  59.2  70.5
2020-09-23 01:38  12.1  14.2   260  69.1  59.6  71.3